Nearby METAR Reports

 

KMGE - Dobbins Afb/Mari, Georgia, USA
Distance from station: SSW 6mi, 9km
Updated: Sat, 20-Jan-2018 8:56pm EST
Clear
Clear
 Wind from calm
Wind: Calm
Temperature: 41°F , 5°C
Dew Point: 36°F , 2°C
Humidity: 81%
Barometer: 30.25 inHg , 1024.4 hPa
Clouds: Clear
Visibility: 10 miles , 16 km
2018/01/21 01:56 KMGE 210156Z 00000KT 10SM CLR 05/02 A3025 RMK AO2A SLP251 T00510016 $
KRYY - Marietta Mccolum, Georgia, USA
Distance from station: WNW 6mi, 10km
Updated: Sat, 20-Jan-2018 6:48pm EST
NOT Current
Clear
Clear
 Wind from calm
Wind: Calm
Temperature: 48°F , 9°C
Dew Point: 37°F , 3°C
Humidity: 66%
Barometer: 30.24 inHg , 1024 hPa
Clouds: Clear
Visibility: 10 miles , 16 km
2018/01/20 23:48 KRYY 202348Z 00000KT 10SM SKC 09/03 A3024
 
KPDK - Peachtree/Dekalb, Georgia, USA
Distance from station: SE 13mi, 22km
Updated: Sat, 20-Jan-2018 8:53pm EST
Clear
Clear
 Wind from SSW
Wind: SSW 6 mph , 9 km/h
Temperature: 43°F , 6°C
Wind Chill: 39°F , 4°C
Dew Point: 36°F , 2°C
Humidity: 76%
Barometer: 30.25 inHg , 1024.4 hPa
Clouds: Clear
Visibility: 10 miles , 16 km
2018/01/21 01:53 KPDK 210153Z 20005KT 10SM CLR 06/02 A3025 RMK AO2 SLP258 T00610022
KFTY - Atlanta/Fulton, Georgia, USA
Distance from station: S 15mi, 24km
Updated: Sat, 20-Jan-2018 8:53pm EST
Clear
Clear
 Wind from calm
Wind: Calm
Temperature: 45°F , 7°C
Dew Point: 37°F , 3°C
Humidity: 76%
Barometer: 30.26 inHg , 1024.7 hPa
Clouds: Clear
Visibility: 10 miles , 16 km
2018/01/21 01:53 KFTY 210153Z 00000KT 10SM CLR 07/03 A3026 RMK AO2 SLP249 T00670033
 
KCNI - Canton/Cherokee, Georgia, USA
Distance from station: N 23mi, 36km
Updated: Sat, 20-Jan-2018 9:35pm EST
Clear
Clear
 Wind from NNE
Wind: NNE 3 mph , 6 km/h
Temperature: 43°F , 6°C
Dew Point: 36°F , 2°C
Humidity: 76%
Barometer: 30.26 inHg , 1024.7 hPa
Clouds: Clear
Visibility: 10 miles , 16 km
2018/01/21 02:35 KCNI 210235Z AUTO 02003KT 10SM CLR 06/02 A3026 RMK AO2
KVPC - Cartersville, Georgia, USA
Distance from station: WNW 23mi, 36km
Updated: Sat, 20-Jan-2018 8:53pm EST
Clear
Clear
 Wind from calm
Wind: Calm
Temperature: 37°F , 3°C
Dew Point: 36°F , 2°C
Humidity: 93%
Barometer: 30.26 inHg , 1024.7 hPa
Clouds: Clear
Visibility: 10 miles , 16 km
2018/01/21 01:53 KVPC 210153Z AUTO 00000KT 10SM CLR 03/02 A3026 RMK AO2 SLP246 T00330022
 
KATL - Atlanta, Georgia, USA
Distance from station: S 25mi, 40km
Updated: Sat, 20-Jan-2018 8:52pm EST
Few Clouds
Few Clouds
 Wind from W
Wind: W 3 mph , 6 km/h
Temperature: 50°F , 10°C
Dew Point: 37°F , 3°C
Humidity: 62%
Barometer: 30.25 inHg , 1024.4 hPa
Clouds: Few Clouds
Visibility: 10 miles , 16 km
Cloud details: Few Clouds 25000 ft
2018/01/21 01:52 KATL 210152Z 27003KT 10SM FEW250 10/03 A3025 RMK AO2 SLP249 T01000033
KPUJ - Atlanta/Paulding, Georgia, USA
Distance from station: WSW 26mi, 42km
Updated: Sat, 20-Jan-2018 9:35pm EST
Clear
Clear
 Wind from calm
Wind: Calm
Temperature: 54°F , 12°C
Dew Point: 43°F , 6°C
Humidity: 67%
Barometer: 30.25 inHg , 1024.4 hPa
Clouds: Clear
Visibility: 10 miles , 16 km
2018/01/21 02:35 KPUJ 210235Z AUTO 00000KT 10SM CLR 12/06 A3025 RMK AO2
 
KLZU - Lawrenceville, Georgia, USA
Distance from station: E 30mi, 48km
Updated: Sat, 20-Jan-2018 8:56pm EST
Clear
Clear
 Wind from calm
Wind: Calm
Temperature: 46°F , 8°C
Dew Point: 36°F , 2°C
Humidity: 66%
Clouds: Clear
Visibility: 10 miles , 16 km
2018/01/21 01:56 KLZU 210156Z AUTO 00000KT 10SM CLR 08/02 RMK AO2 SLPNO T00780017 $
KJZP - Jasper, Georgia, USA
Distance from station: N 32mi, 51km
Updated: Sat, 20-Jan-2018 9:35pm EST
Clear
Clear
 Wind from NE
Wind: NE 3 mph , 6 km/h
Temperature: 46°F , 8°C
Dew Point: 36°F , 2°C
Humidity: 66%
Barometer: 30.28 inHg , 1025.4 hPa
Clouds: Clear
Visibility: 10 miles , 16 km
2018/01/21 02:35 KJZP 210235Z AUTO 04003KT 10SM CLR 08/02 A3028 RMK AO2 T00770015 PNO
 
KCZL - Calhoun, Georgia, USA
Distance from station: NW 40mi, 65km
Updated: Sat, 20-Jan-2018 9:35pm EST
Clear
Clear
 Wind from calm
Wind: Calm
Temperature: 37°F , 3°C
Dew Point: 34°F , 1°C
Humidity: 87%
Barometer: 30.26 inHg , 1024.7 hPa
Clouds: Clear
Visibility: 10 miles , 16 km
2018/01/21 02:35 KCZL 210235Z AUTO 00000KT 10SM CLR 03/01 A3026 RMK AO2 T00300005
KGVL - Gainesville, Georgia, USA
Distance from station: ENE 42mi, 68km
Updated: Sat, 20-Jan-2018 8:53pm EST
Clear
Clear
 Wind from W
Wind: W 6 mph , 9 km/h
Temperature: 50°F , 10°C
Wind Chill: 48°F , 9°C
Dew Point: 36°F , 2°C
Humidity: 58%
Barometer: 30.25 inHg , 1024.4 hPa
Clouds: Clear
Visibility: 10 miles , 16 km
2018/01/21 01:53 KGVL 210153Z AUTO 28005KT 10SM CLR 10/02 A3025 RMK AO2 SLP244 T01000022
 
KHMP - Hampton, Georgia, USA
Distance from station: SSE 43mi, 70km
Updated: Sat, 20-Jan-2018 9:35pm EST
Clear
Clear
 Wind from calm
Wind: Calm
Temperature: 41°F , 5°C
Dew Point: 37°F , 3°C
Humidity: 87%
Barometer: 30.27 inHg , 1025.1 hPa
Clouds: Clear
Visibility: 10 miles , 16 km
2018/01/21 02:35 KHMP 210235Z AUTO 00000KT 10SM CLR 05/03 A3027 RMK AO2 T00460025
KCVC - Covington, Georgia, USA
Distance from station: ESE 45mi, 72km
Updated: Sat, 20-Jan-2018 9:16pm EST
Clear
Clear
 Wind from calm
Wind: Calm
Temperature: 46°F , 8°C
Dew Point: 39°F , 4°C
Humidity: 76%
Barometer: 30.24 inHg , 1024 hPa
Clouds: Clear
Visibility: 10 miles , 16 km
2018/01/21 02:16 KCVC 210216Z AUTO 00000KT 10SM CLR 08/04 A3024 RMK AO2
 
KFFC - Peachtree City, Georgia, USA
Distance from station: S 45mi, 72km
Updated: Sat, 20-Jan-2018 8:53pm EST
Clear
Clear
 Wind from calm
Wind: Calm
Temperature: 41°F , 5°C
Dew Point: 36°F , 2°C
Humidity: 81%
Barometer: 30.26 inHg , 1024.7 hPa
Clouds: Clear
Visibility: 10 miles , 16 km
2018/01/21 01:53 KFFC 210153Z AUTO 00000KT 10SM CLR 05/02 A3026 RMK AO2 SLP254 T00500022
KCTJ - Carrollton/Gray, Georgia, USA
Distance from station: SW 45mi, 73km
Updated: Sat, 20-Jan-2018 9:35pm EST
Clear
Clear
 Wind from calm
Wind: Calm
Temperature: 41°F , 5°C
Dew Point: 36°F , 2°C
Humidity: 81%
Barometer: 30.29 inHg , 1025.7 hPa
Clouds: Clear
Visibility: 10 miles , 16 km
2018/01/21 02:35 KCTJ 210235Z AUTO 00000KT 10SM CLR 05/02 A3029 RMK AO2 T00470019
 
KRMG - Rome, Georgia, USA
Distance from station: WNW 46mi, 74km
Updated: Sat, 20-Jan-2018 8:53pm EST
Clear
Clear
 Wind from calm
Wind: Calm
Temperature: 41°F , 5°C
Dew Point: 36°F , 2°C
Humidity: 81%
Barometer: 30.24 inHg , 1024 hPa
Clouds: Clear
Visibility: 10 miles , 16 km
2018/01/21 01:53 KRMG 210153Z AUTO 00000KT 10SM CLR 05/02 A3024 RMK AO2 SLP240 T00500022 $
KWDR - Winder/Barrow, Georgia, USA
Distance from station: E 47mi, 76km
Updated: Sat, 20-Jan-2018 9:35pm EST
Clear
Clear
 Wind from NW
Wind: NW 7 mph , 11 km/h
Temperature: 52°F , 11°C
Dew Point: 36°F , 2°C
Humidity: 54%
Barometer: 30.27 inHg , 1025.1 hPa
Clouds: Clear
Visibility: 10 miles , 16 km
2018/01/21 02:35 KWDR 210235Z AUTO 32006KT 10SM CLR 11/02 A3027 RMK AO1
 
KCCO - Newnan, Georgia, USA
Distance from station: SSW 49mi, 80km
Updated: Sat, 20-Jan-2018 9:35pm EST
Clear
Clear
 Wind from calm
Wind: Calm
Temperature: 50°F , 10°C
Dew Point: 37°F , 3°C
Humidity: 62%
Barometer: 30.26 inHg , 1024.7 hPa
Clouds: Clear
Visibility: 10 miles , 16 km
2018/01/21 02:35 KCCO 210235Z AUTO 00000KT 10SM CLR 10/03 A3026 RMK AO2 T00980025